LCLK

Larnaca International Airport

Larnarca, Cyprus
TAF LCLK 221130Z 2212/2312 07012KT 9999 FEW030 BECMG 2217/2220 35007KT BECMG 2310/2312 09014KT
Issued Valid From Valid To
Jan-22 @ 11:30 UTC
(5 hours ago)
Jan-22 @ 12:00 UTC
(5 hours ago)
Jan-23 @ 12:00 UTC
(in 19 hours)
Jan-22 @ 12:00 to Jan-22 @ 17:00
TAF LCLK 221130Z 2212/2312 07012KT 9999 FEW030
Wind Visibility Clouds
70° at 12 knots 10,000+ meters
  • Few at 3,000' AGL
Becoming Jan-22 @ 17:00 to Jan-23 @ 10:00
BECMG 2217/2220 35007KT
Wind Visibility Clouds
350° at 7 knots 10,000+ meters
  • Few at 3,000' AGL
Becoming Jan-23 @ 10:00 to Jan-23 @ 12:00
BECMG 2310/2312 09014KT
Wind Visibility Clouds
90° at 14 knots 10,000+ meters
  • Few at 3,000' AGL
TAF LCLK 221130Z 2212/2312 07012KT 9999 FEW030 BECMG 2217/2220 35007KT BECMG 2310/2312 09014KT
Issued Jan-22 @ 11:30 UTC
(5 hours ago)
Valid From Jan-22 @ 12:00 UTC
(5 hours ago)
Valid To Jan-23 @ 12:00 UTC
(in 19 hours)
Jan-22 @ 12:00 - Jan-22 @ 17:00
Wind Visibility
70° at 12 knots 10,000+ meters
Clouds
  • Few at 3,000' AGL
Becoming Jan-22 @ 17:00 - Jan-23 @ 10:00
Wind Visibility
350° at 7 knots 10,000+ meters
Clouds
  • Few at 3,000' AGL
Becoming Jan-23 @ 10:00 - Jan-23 @ 12:00
Wind Visibility
90° at 14 knots 10,000+ meters
Clouds
  • Few at 3,000' AGL